createdAt,value
2022-10-21T00:00:16.018Z,98050.63
2022-10-21T00:02:43.002Z,98054.50
2022-10-21T00:05:09.928Z,98061.03
2022-10-21T00:07:36.588Z,98054.78
2022-10-21T00:10:04.849Z,98059.72
2022-10-21T00:12:32.009Z,98067.16
2022-10-21T00:14:58.582Z,98076.06
2022-10-21T00:17:25.220Z,98068.84
2022-10-21T00:19:51.908Z,98063.69
2022-10-21T00:22:18.541Z,98068.75
2022-10-21T00:24:45.171Z,98063.25
2022-10-21T00:27:11.780Z,98066.09
2022-10-21T00:29:38.416Z,98073.81
2022-10-21T00:32:05.216Z,98075.75
2022-10-21T00:34:32.798Z,98071.06
2022-10-21T00:36:59.540Z,98085.47
2022-10-21T00:39:26.187Z,98080.84
2022-10-21T00:41:52.870Z,98082.31
2022-10-21T00:44:19.715Z,98072.41
2022-10-21T00:46:56.762Z,98075.38
2022-10-21T00:49:39.101Z,98062.25
2022-10-21T00:52:09.357Z,98066.31
2022-10-21T00:54:36.734Z,98070.81
2022-10-21T00:57:03.540Z,98070.59
2022-10-21T00:59:35.117Z,98070.59
2022-10-21T01:02:01.878Z,98065.28
2022-10-21T01:04:28.587Z,98064.91
2022-10-21T01:06:55.653Z,98064.91
2022-10-21T01:09:22.564Z,98060.88
2022-10-21T01:11:50.335Z,98059.84
2022-10-21T01:14:40.622Z,98060.50
2022-10-21T01:17:52.364Z,98060.06
2022-10-21T01:20:51.446Z,98065.91
2022-10-21T01:23:43.123Z,98058.59
2022-10-21T01:26:15.428Z,98063.53
2022-10-21T01:29:06.989Z,98064.78
2022-10-21T01:31:46.788Z,98056.25
2022-10-21T01:34:37.865Z,98056.72
2022-10-21T01:37:16.844Z,98058.34
2022-10-21T01:39:47.744Z,98065.97
2022-10-21T01:42:27.107Z,98060.09
2022-10-21T01:44:57.692Z,98046.84
2022-10-21T01:47:32.864Z,98042.44
2022-10-21T01:50:08.462Z,98033.59
2022-10-21T01:52:35.304Z,98021.88
2022-10-21T01:55:05.044Z,98024.53
2022-10-21T01:57:37.833Z,98033.88
2022-10-21T02:00:05.582Z,98035.59
2022-10-21T02:02:34.718Z,98041.31
2022-10-21T02:05:06.195Z,98042.50
2022-10-21T02:07:32.954Z,98035.16
2022-10-21T02:09:59.866Z,98029.59
2022-10-21T02:12:28.151Z,98029.31
2022-10-21T02:14:55.491Z,98024.22
2022-10-21T02:17:22.413Z,98025.06
2022-10-21T02:19:49.257Z,98021.22
2022-10-21T02:22:20.489Z,98016.50
2022-10-21T02:24:56.892Z,98007.06
2022-10-21T02:27:24.165Z,98002.38
2022-10-21T02:29:53.858Z,97990.25
2022-10-21T02:32:35.857Z,97989.97
2022-10-21T02:35:24.500Z,97962.16
2022-10-21T02:38:04.027Z,97953.91
2022-10-21T02:40:37.573Z,97945.28
2022-10-21T02:43:11.881Z,97950.38
2022-10-21T02:45:38.993Z,97956.88
2022-10-21T02:48:06.002Z,97940.09
2022-10-21T02:50:32.670Z,97936.84
2022-10-21T02:52:59.360Z,97924.78
2022-10-21T02:55:26.192Z,97924.53
2022-10-21T02:57:52.845Z,97919.63
2022-10-21T03:00:19.550Z,97923.88
2022-10-21T03:02:46.209Z,97922.75
2022-10-21T03:05:13.109Z,97921.63
2022-10-21T03:07:40.915Z,97904.91
2022-10-21T03:10:08.086Z,97890.63
2022-10-21T03:12:34.773Z,97894.75
2022-10-21T03:15:01.343Z,97880.03
2022-10-21T03:17:27.976Z,97900.53
2022-10-21T03:19:54.667Z,97900.28
2022-10-21T03:22:21.272Z,97888.72
2022-10-21T03:24:47.917Z,97885.75
2022-10-21T03:27:14.567Z,97878.97
2022-10-21T03:29:41.197Z,97869.94
2022-10-21T03:32:07.811Z,97871.31
2022-10-21T03:34:34.489Z,97877.41
2022-10-21T03:37:01.184Z,97880.50
2022-10-21T03:39:27.842Z,97876.00
2022-10-21T03:41:54.464Z,97877.03
2022-10-21T03:44:21.817Z,97883.03
2022-10-21T03:46:50.524Z,97872.72
2022-10-21T03:49:21.352Z,97871.75
2022-10-21T03:51:48.743Z,97878.53
2022-10-21T03:54:17.373Z,97876.72
2022-10-21T03:56:44.079Z,97865.47
2022-10-21T03:59:10.752Z,97870.44
2022-10-21T04:01:37.747Z,97860.47
2022-10-21T04:04:04.456Z,97861.56
2022-10-21T04:06:31.216Z,97858.88
2022-10-21T04:08:57.925Z,97854.75
2022-10-21T04:11:24.700Z,97860.63
2022-10-21T04:13:51.373Z,97864.13
2022-10-21T04:16:20.607Z,97857.97
2022-10-21T04:18:47.366Z,97845.81
2022-10-21T04:21:14.574Z,97844.41
2022-10-21T04:23:41.272Z,97846.53
2022-10-21T04:26:08.107Z,97840.00
2022-10-21T04:28:35.324Z,97840.41
2022-10-21T04:31:01.953Z,97844.13
2022-10-21T04:33:28.690Z,97837.25
2022-10-21T04:35:55.723Z,97832.63
2022-10-21T04:38:23.251Z,97834.88
2022-10-21T04:40:57.727Z,97834.25
2022-10-21T04:43:24.611Z,97834.88
2022-10-21T04:45:51.200Z,97828.28
2022-10-21T04:48:17.913Z,97823.00
2022-10-21T04:50:44.614Z,97833.66
2022-10-21T04:53:11.428Z,97836.13
2022-10-21T04:55:41.185Z,97829.56
2022-10-21T04:58:07.921Z,97839.63
2022-10-21T05:00:34.746Z,97827.94
2022-10-21T05:03:01.619Z,97834.66
2022-10-21T05:05:28.357Z,97836.50
2022-10-21T05:07:55.017Z,97825.66
2022-10-21T05:10:22.482Z,97817.88
2022-10-21T05:12:49.163Z,97826.31
2022-10-21T05:15:15.825Z,97824.44
2022-10-21T05:17:42.574Z,97836.13
2022-10-21T05:20:09.729Z,97829.31
2022-10-21T05:22:37.004Z,97825.38
2022-10-21T05:25:04.063Z,97827.41
2022-10-21T05:27:30.788Z,97825.63
2022-10-21T05:29:58.431Z,97824.97
2022-10-21T05:32:25.156Z,97832.56
2022-10-21T05:34:51.755Z,97822.38
2022-10-21T05:37:18.569Z,97824.41
2022-10-21T05:39:45.264Z,97821.16
2022-10-21T05:42:11.867Z,97828.09
2022-10-21T05:44:38.511Z,97818.69
2022-10-21T05:47:05.152Z,97827.13
2022-10-21T05:49:31.806Z,97827.75
2022-10-21T05:51:59.064Z,97822.44
2022-10-21T05:54:25.704Z,97809.53
2022-10-21T05:56:55.897Z,97820.00
2022-10-21T05:59:22.767Z,97812.03
2022-10-21T06:01:49.457Z,97809.78
2022-10-21T06:04:16.037Z,97823.50
2022-10-21T06:06:42.672Z,97824.53
2022-10-21T06:09:09.791Z,97820.88
2022-10-21T06:11:36.469Z,97825.41
2022-10-21T06:14:03.107Z,97825.00
2022-10-21T06:16:29.769Z,97822.50
2022-10-21T06:18:56.390Z,97826.22
2022-10-21T06:21:23.043Z,97827.66
2022-10-21T06:23:53.673Z,97829.28
2022-10-21T06:26:20.441Z,97822.72
2022-10-21T06:28:47.197Z,97828.28
2022-10-21T06:31:16.569Z,97833.38
2022-10-21T06:33:43.592Z,97838.28
2022-10-21T06:36:10.288Z,97839.72
2022-10-21T06:38:37.787Z,97839.72
2022-10-21T06:41:10.526Z,97843.84
2022-10-21T06:43:40.620Z,97845.50
2022-10-21T06:46:09.859Z,97843.25
2022-10-21T06:48:36.896Z,97851.25
2022-10-21T06:51:06.578Z,97859.25
2022-10-21T06:53:36.560Z,97856.97
2022-10-21T06:56:08.019Z,97856.81
2022-10-21T06:58:36.297Z,97856.63
2022-10-21T07:01:21.338Z,97859.06
2022-10-21T07:03:57.193Z,97864.38
2022-10-21T07:06:23.960Z,97881.84
2022-10-21T07:08:57.938Z,97884.75
2022-10-21T07:11:25.516Z,97895.19
2022-10-21T07:13:52.167Z,97898.84
2022-10-21T07:16:33.522Z,97895.75
2022-10-21T07:19:00.188Z,97892.69
2022-10-21T07:21:28.603Z,97887.41
2022-10-21T07:23:59.408Z,97884.75
2022-10-21T07:26:27.666Z,97872.69
2022-10-21T07:28:55.818Z,97871.44
2022-10-21T07:31:22.515Z,97846.81
2022-10-21T07:33:49.426Z,97831.03
2022-10-21T07:36:21.751Z,97817.28
2022-10-21T07:38:49.501Z,97832.47
2022-10-21T07:41:21.530Z,97836.16
2022-10-21T07:43:48.591Z,97845.59
2022-10-21T07:46:16.021Z,97841.09
2022-10-21T07:48:42.610Z,97864.47
2022-10-21T07:51:12.632Z,97876.34
2022-10-21T07:53:39.797Z,97856.88
2022-10-21T07:56:18.743Z,97864.47
2022-10-21T07:58:47.020Z,97878.41
2022-10-21T08:01:15.187Z,97881.69
2022-10-21T08:03:42.291Z,97887.84
2022-10-21T08:06:11.027Z,97888.88
2022-10-21T08:08:37.683Z,97898.09
2022-10-21T08:11:05.105Z,97879.53
2022-10-21T08:13:32.579Z,97870.19
2022-10-21T08:15:59.350Z,97861.16
2022-10-21T08:18:26.439Z,97863.44
2022-10-21T08:20:53.953Z,97869.16
2022-10-21T08:23:22.354Z,97861.97
2022-10-21T08:25:57.185Z,97863.19
2022-10-21T08:28:25.563Z,97854.59
2022-10-21T08:30:52.593Z,97862.78
2022-10-21T08:33:19.382Z,97870.16
2022-10-21T08:35:46.114Z,97872.66
2022-10-21T08:38:12.813Z,97857.06
2022-10-21T08:40:47.276Z,97853.59
2022-10-21T08:43:33.113Z,97840.25
2022-10-21T08:46:03.291Z,97845.19
2022-10-21T08:48:33.648Z,97840.69
2022-10-21T08:51:01.141Z,97829.00
2022-10-21T08:53:32.728Z,97832.50
2022-10-21T08:56:05.816Z,97839.47
2022-10-21T08:58:32.779Z,97833.50
2022-10-21T09:01:03.499Z,97832.47
2022-10-21T09:03:37.058Z,97844.81
2022-10-21T09:06:16.696Z,97849.31
2022-10-21T09:09:04.445Z,97861.22
2022-10-21T09:11:36.839Z,97891.41
2022-10-21T09:14:03.389Z,97921.94
2022-10-21T09:16:39.008Z,97888.31
2022-10-21T09:19:17.844Z,97875.78
2022-10-21T09:22:22.542Z,97863.28
2022-10-21T09:25:04.143Z,97912.53
2022-10-21T09:27:51.227Z,97904.34
2022-10-21T09:30:21.994Z,97916.25
2022-10-21T09:32:51.070Z,97925.94
2022-10-21T09:35:32.870Z,97921.59
2022-10-21T09:38:03.795Z,97934.34
2022-10-21T09:40:31.312Z,97932.09
2022-10-21T09:42:59.614Z,97942.94
2022-10-21T09:45:37.741Z,97934.56
2022-10-21T09:48:19.836Z,97930.25
2022-10-21T09:50:49.210Z,97937.66
2022-10-21T09:53:25.694Z,97938.69
2022-10-21T09:55:58.443Z,97934.78
2022-10-21T09:58:44.857Z,97934.34
2022-10-21T10:01:21.795Z,97938.88
2022-10-21T10:03:50.576Z,97943.81
2022-10-21T10:06:34.813Z,97947.94
2022-10-21T10:09:12.322Z,97950.00
2022-10-21T10:11:57.193Z,97961.50
2022-10-21T10:14:53.583Z,97967.00
2022-10-21T10:17:29.158Z,97964.97
2022-10-21T10:20:05.214Z,97961.88
2022-10-21T10:22:37.800Z,97960.81
2022-10-21T10:25:24.383Z,97971.09
2022-10-21T10:27:52.414Z,97964.72
2022-10-21T10:30:19.756Z,97959.38
2022-10-21T10:32:47.812Z,97954.03
2022-10-21T10:35:32.333Z,97955.28
2022-10-21T10:38:01.501Z,97960.81
2022-10-21T10:40:39.481Z,97962.47
2022-10-21T10:43:12.157Z,97958.78
2022-10-21T10:45:38.888Z,97962.28
2022-10-21T10:48:07.174Z,97968.06
2022-10-21T10:50:37.531Z,97970.94
2022-10-21T10:53:24.071Z,97970.13
2022-10-21T10:56:02.857Z,97972.75
2022-10-21T10:58:32.446Z,97977.50
2022-10-21T11:01:01.244Z,97961.91
2022-10-21T11:03:40.478Z,97965.34
2022-10-21T11:06:17.701Z,97962.91
2022-10-21T11:08:49.322Z,97965.59
2022-10-21T11:11:22.836Z,97967.41
2022-10-21T11:13:49.555Z,97971.72
2022-10-21T11:16:36.779Z,97971.13
2022-10-21T11:19:54.649Z,97969.91
2022-10-21T11:22:52.190Z,97963.31
2022-10-21T11:25:23.124Z,97964.31
2022-10-21T11:28:01.959Z,97973.94
2022-10-21T11:31:02.544Z,97971.78
2022-10-21T11:34:03.196Z,97980.59
2022-10-21T11:36:38.338Z,97964.84
2022-10-21T11:39:26.575Z,97971.84
2022-10-21T11:42:06.241Z,97978.50
2022-10-21T11:45:01.261Z,97964.41
2022-10-21T11:47:47.217Z,97966.50
2022-10-21T11:50:30.422Z,97965.59
2022-10-21T11:53:12.662Z,97963.09
2022-10-21T11:55:45.007Z,97959.16
2022-10-21T11:58:53.565Z,97958.28
2022-10-21T12:01:34.748Z,97965.03
2022-10-21T12:04:01.341Z,97960.13
2022-10-21T12:06:38.656Z,97962.53
2022-10-21T12:09:43.954Z,97951.16
2022-10-21T12:12:19.512Z,97945.63
2022-10-21T12:14:56.463Z,97949.56
2022-10-21T12:17:24.918Z,97950.69
2022-10-21T12:19:59.628Z,97945.66
2022-10-21T12:22:31.297Z,97950.22
2022-10-21T12:25:13.264Z,97946.38
2022-10-21T12:27:45.016Z,97955.84
2022-10-21T12:30:17.243Z,97959.03
2022-10-21T12:32:54.198Z,97965.63
2022-10-21T12:35:46.929Z,97963.34
2022-10-21T12:38:23.127Z,97957.97
2022-10-21T12:40:51.069Z,97956.78
2022-10-21T12:43:22.615Z,97958.66
2022-10-21T12:46:09.861Z,97955.78
2022-10-21T12:48:54.667Z,97956.78
2022-10-21T12:51:27.379Z,97966.69
2022-10-21T12:53:58.272Z,97957.25
2022-10-21T12:56:46.128Z,97955.63
2022-10-21T12:59:45.417Z,97957.28
2022-10-21T13:02:25.692Z,97952.19
2022-10-21T13:04:54.691Z,97943.81
2022-10-21T13:07:21.247Z,97954.47
2022-10-21T13:09:50.932Z,97955.47
2022-10-21T13:12:23.438Z,97954.66
2022-10-21T13:15:00.895Z,97949.31
2022-10-21T13:17:32.005Z,97946.63
2022-10-21T13:20:20.356Z,97948.22
2022-10-21T13:23:02.009Z,97944.31
2022-10-21T13:25:38.502Z,97943.66
2022-10-21T13:28:14.210Z,97947.38
2022-10-21T13:31:08.849Z,97934.84
2022-10-21T13:33:40.878Z,97936.41
2022-10-21T13:36:12.837Z,97945.06
2022-10-21T13:38:51.385Z,97940.94
2022-10-21T13:41:29.301Z,97938.28
2022-10-21T13:44:06.746Z,97938.50
2022-10-21T13:46:42.444Z,97932.16
2022-10-21T13:49:30.764Z,97928.31
2022-10-21T13:51:58.369Z,97923.56
2022-10-21T13:54:25.154Z,97925.91
2022-10-21T13:56:51.884Z,97935.59
2022-10-21T13:59:30.007Z,97929.19
2022-10-21T14:01:57.864Z,97927.34
2022-10-21T14:04:30.301Z,97921.59
2022-10-21T14:07:07.987Z,97924.69
2022-10-21T14:09:39.473Z,97922.63
2022-10-21T14:12:10.430Z,97931.28
2022-10-21T14:14:38.801Z,97926.94
2022-10-21T14:17:08.817Z,97928.19
2022-10-21T14:19:37.997Z,97921.59
2022-10-21T14:24:36.026Z,97922.84
2022-10-21T14:27:03.198Z,97902.31
2022-10-21T14:29:33.289Z,97904.13
2022-10-21T14:32:00.562Z,97902.31
2022-10-21T14:34:32.694Z,97897.16
2022-10-21T14:37:12.152Z,97909.66
2022-10-21T14:39:39.744Z,97922.63
2022-10-21T14:42:12.987Z,97919.13
2022-10-21T14:44:41.926Z,97916.63
2022-10-21T14:47:18.167Z,97918.06
2022-10-21T14:49:48.014Z,97913.72
2022-10-21T14:52:19.728Z,97917.41
2022-10-21T14:55:01.393Z,97905.47
2022-10-21T14:57:47.880Z,97910.00
2022-10-21T15:00:29.152Z,97911.69
2022-10-21T15:02:58.712Z,97928.97
2022-10-21T15:05:41.406Z,97924.44
2022-10-21T15:08:21.735Z,97923.44
2022-10-21T15:10:57.269Z,97917.50
2022-10-21T15:13:25.474Z,97926.34
2022-10-21T15:15:54.302Z,97915.25
2022-10-21T15:18:30.153Z,97907.00
2022-10-21T15:21:00.059Z,97904.56
2022-10-21T15:23:29.837Z,97910.91
2022-10-21T15:26:00.558Z,97907.22
2022-10-21T15:28:34.266Z,97909.47
2022-10-21T15:31:02.681Z,97911.34
2022-10-21T15:33:29.506Z,97897.97
2022-10-21T15:36:08.729Z,97902.50
2022-10-21T15:38:36.612Z,97898.59
2022-10-21T15:41:03.435Z,97900.03
2022-10-21T15:43:30.068Z,97907.25
2022-10-21T15:45:56.732Z,97905.00
2022-10-21T15:48:23.390Z,97907.06
2022-10-21T15:50:50.012Z,97904.56
2022-10-21T15:53:16.812Z,97903.97
2022-10-21T15:55:44.302Z,97906.25
2022-10-21T15:58:10.924Z,97897.19
2022-10-21T16:00:40.153Z,97893.88
2022-10-21T16:03:08.400Z,97886.09
2022-10-21T16:05:35.162Z,97898.84
2022-10-21T16:08:01.825Z,97898.84
2022-10-21T16:10:31.264Z,97896.56
2022-10-21T16:12:58.668Z,97890.84
2022-10-21T16:15:25.793Z,97890.41
2022-10-21T16:17:57.182Z,97898.84
2022-10-21T16:20:29.372Z,97897.59
2022-10-21T16:22:59.238Z,97897.81
2022-10-21T16:25:28.848Z,97896.97
2022-10-21T16:27:56.699Z,97904.16
2022-10-21T16:30:29.834Z,97902.13
2022-10-21T16:32:57.339Z,97907.25
2022-10-21T16:35:24.534Z,97913.81
2022-10-21T16:37:51.415Z,97917.09
2022-10-21T16:40:17.958Z,97923.91
2022-10-21T16:42:44.664Z,97929.84
2022-10-21T16:45:11.517Z,97915.88
2022-10-21T16:47:38.136Z,97917.69
2022-10-21T16:50:06.707Z,97915.22
2022-10-21T16:52:35.097Z,97921.19
2022-10-21T16:55:01.787Z,97910.72
2022-10-21T16:57:28.460Z,97913.00
2022-10-21T16:59:55.193Z,97912.56
2022-10-21T17:02:21.924Z,97913.19
2022-10-21T17:04:48.689Z,97912.34
2022-10-21T17:07:15.329Z,97913.19
2022-10-21T17:09:42.086Z,97911.34
2022-10-21T17:12:11.435Z,97914.63
2022-10-21T17:14:38.498Z,97914.22
2022-10-21T17:17:05.232Z,97910.91
2022-10-21T17:19:31.901Z,97909.47
2022-10-21T17:21:58.624Z,97907.03
2022-10-21T17:24:25.933Z,97917.50
2022-10-21T17:26:52.561Z,97913.78
2022-10-21T17:29:19.302Z,97910.91
2022-10-21T17:31:45.928Z,97911.31
2022-10-21T17:34:25.158Z,97910.09
2022-10-21T17:36:51.973Z,97920.97
2022-10-21T17:39:18.686Z,97918.09
2022-10-21T17:44:32.636Z,97914.56
2022-10-21T17:46:59.212Z,97913.78
2022-10-21T17:49:26.961Z,97914.41
2022-10-21T17:51:53.720Z,97913.38
2022-10-21T17:54:24.119Z,97913.78
2022-10-21T17:56:55.200Z,97914.19
2022-10-21T17:59:23.029Z,97915.41
2022-10-21T18:01:49.636Z,97913.34
2022-10-21T18:04:16.264Z,97912.75
2022-10-21T18:06:43.260Z,97916.66
2022-10-21T18:09:10.041Z,97914.41
2022-10-21T18:11:37.309Z,97911.97
2022-10-21T18:14:04.142Z,97909.28
2022-10-21T18:16:31.090Z,97907.84
2022-10-21T18:19:01.739Z,97898.56
2022-10-21T18:21:29.774Z,97895.47
2022-10-21T18:23:56.575Z,97889.06
2022-10-21T18:26:26.232Z,97889.09
2022-10-21T18:28:57.191Z,97879.22
2022-10-21T18:31:24.836Z,97874.72
2022-10-21T18:33:54.668Z,97883.34
2022-10-21T18:36:22.124Z,97873.50
2022-10-21T18:38:48.793Z,97880.91
2022-10-21T18:41:20.047Z,97875.94
2022-10-21T18:43:55.468Z,97873.72
2022-10-21T18:46:22.705Z,97878.59
2022-10-21T18:48:49.795Z,97872.28
2022-10-21T18:51:18.973Z,97876.16
2022-10-21T18:53:49.782Z,97868.56
2022-10-21T18:56:19.233Z,97871.81
2022-10-21T18:58:46.159Z,97867.34
2022-10-21T19:01:15.152Z,97869.38
2022-10-21T19:03:42.768Z,97867.56
2022-10-21T19:06:29.975Z,97862.00
2022-10-21T19:08:56.716Z,97864.88
2022-10-21T19:11:23.531Z,97872.28
2022-10-21T19:13:50.549Z,97869.44
2022-10-21T19:16:17.214Z,97872.31
2022-10-21T19:18:43.858Z,97876.44
2022-10-21T19:21:12.991Z,97882.56
2022-10-21T19:23:39.852Z,97876.84
2022-10-21T19:26:07.934Z,97885.66
2022-10-21T19:28:36.181Z,97887.50
2022-10-21T19:31:03.455Z,97877.44
2022-10-21T19:33:30.775Z,97878.50
2022-10-21T19:36:01.516Z,97871.28
2022-10-21T19:38:43.151Z,97872.94
2022-10-21T19:41:13.314Z,97878.47
2022-10-21T19:43:39.989Z,97879.91
2022-10-21T19:46:07.419Z,97888.75
2022-10-21T19:48:37.523Z,97888.75
2022-10-21T19:51:04.823Z,97889.97
2022-10-21T19:53:33.952Z,97887.31
2022-10-21T19:56:05.043Z,97886.09
2022-10-21T19:58:32.952Z,97890.59
2022-10-21T20:01:12.044Z,97889.75
2022-10-21T20:03:40.359Z,97891.63
2022-10-21T20:06:08.461Z,97892.03
2022-10-21T20:08:36.121Z,97895.28
2022-10-21T20:11:18.309Z,97903.94
2022-10-21T20:13:45.214Z,97907.22
2022-10-21T20:16:20.040Z,97896.53
2022-10-21T20:18:46.843Z,97898.41
2022-10-21T20:21:14.127Z,97905.97
2022-10-21T20:23:41.106Z,97909.44
2022-10-21T20:26:08.496Z,97911.31
2022-10-21T20:28:35.964Z,97924.25
2022-10-21T20:31:03.845Z,97914.41
2022-10-21T20:33:33.373Z,97910.72
2022-10-21T20:36:07.792Z,97920.78
2022-10-21T20:38:34.464Z,97927.34
2022-10-21T20:41:06.442Z,97933.72
2022-10-21T20:43:42.976Z,97934.34
2022-10-21T20:46:35.584Z,97948.28
2022-10-21T20:49:06.802Z,97940.91
2022-10-21T20:51:34.443Z,97946.25
2022-10-21T20:54:11.114Z,97947.69
2022-10-21T20:56:39.359Z,97947.47
2022-10-21T20:59:08.054Z,97943.78
2022-10-21T21:01:41.777Z,97939.25
2022-10-21T21:04:12.591Z,97928.72
2022-10-21T21:06:41.665Z,97926.63
2022-10-21T21:11:56.597Z,97917.28
2022-10-21T21:14:23.241Z,97936.16
2022-10-21T21:16:49.873Z,97940.47
2022-10-21T21:19:16.498Z,97931.81
2022-10-21T21:21:43.155Z,97941.50
2022-10-21T21:24:10.550Z,97950.31
2022-10-21T21:26:39.444Z,97954.47
2022-10-21T21:29:07.524Z,97971.91
2022-10-21T21:31:36.013Z,97972.06
2022-10-21T21:34:02.958Z,97978.81
2022-10-21T21:36:29.671Z,97976.75
2022-10-21T21:38:56.548Z,97968.50
2022-10-21T21:41:24.664Z,97989.47
2022-10-21T21:43:52.943Z,98000.97
2022-10-21T21:46:24.497Z,98010.91
2022-10-21T21:48:59.661Z,98023.53
2022-10-21T21:51:30.264Z,98012.13
2022-10-21T21:53:57.733Z,98009.69
2022-10-21T21:56:28.290Z,98012.78
2022-10-21T21:58:57.643Z,98007.03
2022-10-21T22:01:26.728Z,98004.38
2022-10-21T22:03:54.173Z,98007.69
2022-10-21T22:06:23.211Z,98009.72
2022-10-21T22:08:50.877Z,98010.47
2022-10-21T22:11:22.434Z,98008.03
2022-10-21T22:13:49.112Z,98002.34
2022-10-21T22:16:20.020Z,98006.41
2022-10-21T22:18:46.689Z,97996.28
2022-10-21T22:21:16.698Z,97997.13
2022-10-21T22:23:43.924Z,97999.69
2022-10-21T22:26:13.509Z,97999.88
2022-10-21T22:28:40.884Z,98000.03
2022-10-21T22:31:10.523Z,97986.28
2022-10-21T22:33:37.844Z,97991.44
2022-10-21T22:36:05.775Z,97995.50
2022-10-21T22:38:33.048Z,97990.81
2022-10-21T22:41:01.655Z,97992.00
2022-10-21T22:43:29.175Z,98003.03
2022-10-21T22:46:05.383Z,98010.16
2022-10-21T22:48:42.869Z,98001.06
2022-10-21T22:51:09.514Z,98006.91
2022-10-21T22:53:36.675Z,97996.25
2022-10-21T22:56:03.655Z,98002.44
2022-10-21T22:58:30.356Z,98006.56
2022-10-21T23:00:57.266Z,98012.75
2022-10-21T23:03:24.069Z,98019.69
2022-10-21T23:05:50.831Z,98022.75
2022-10-21T23:08:18.184Z,98027.69
2022-10-21T23:10:47.717Z,98037.72
2022-10-21T23:13:14.392Z,98037.53
2022-10-21T23:15:40.988Z,98037.16
2022-10-21T23:18:08.114Z,98040.59
2022-10-21T23:20:34.710Z,98044.00
2022-10-21T23:23:01.355Z,98051.38
2022-10-21T23:25:28.238Z,98055.25
2022-10-21T23:27:55.224Z,98064.00
2022-10-21T23:30:22.050Z,98066.66
2022-10-21T23:32:48.733Z,98064.00
2022-10-21T23:35:15.828Z,98059.56
2022-10-21T23:37:43.209Z,98065.63
2022-10-21T23:40:10.659Z,98078.06
2022-10-21T23:42:41.871Z,98072.78
2022-10-21T23:45:11.116Z,98070.94
2022-10-21T23:47:38.754Z,98061.75
2022-10-21T23:50:07.096Z,98056.09
2022-10-21T23:52:33.750Z,98061.03
2022-10-21T23:55:00.414Z,98065.84
2022-10-21T23:57:27.158Z,98058.50
2022-10-21T23:59:54.348Z,98065.63
